createdAt,value
2019-06-26T00:00:37.913Z,67.00
2019-06-26T00:01:42.080Z,67.10
2019-06-26T00:02:46.887Z,67.30
2019-06-26T00:03:51.053Z,67.30
2019-06-26T00:04:55.692Z,67.40
2019-06-26T00:05:59.836Z,67.30
2019-06-26T00:07:04.481Z,67.50
2019-06-26T00:08:08.549Z,67.50
2019-06-26T00:09:13.269Z,67.50
2019-06-26T00:10:18.286Z,67.60
2019-06-26T00:11:22.996Z,67.70
2019-06-26T00:12:27.067Z,67.80
2019-06-26T00:13:31.828Z,67.80
2019-06-26T00:14:38.688Z,67.80
2019-06-26T00:15:42.231Z,67.80
2019-06-26T00:16:49.013Z,67.90
2019-06-26T00:17:53.681Z,67.90
2019-06-26T00:18:57.727Z,68.00
2019-06-26T00:20:02.391Z,68.00
2019-06-26T00:21:06.465Z,68.10
2019-06-26T00:22:11.183Z,68.10
2019-06-26T00:23:15.455Z,68.20
2019-06-26T00:24:20.085Z,68.20
2019-06-26T00:25:24.191Z,69.00
2019-06-26T00:26:28.841Z,68.30
2019-06-26T00:27:32.890Z,68.30
2019-06-26T00:28:37.523Z,68.40
2019-06-26T00:29:41.595Z,68.40
2019-06-26T00:30:46.297Z,68.40
2019-06-26T00:31:50.426Z,68.60
2019-06-26T00:32:55.166Z,68.60
2019-06-26T00:33:59.327Z,68.50
2019-06-26T00:35:04.376Z,68.60
2019-06-26T00:36:08.480Z,68.60
2019-06-26T00:37:13.115Z,68.80
2019-06-26T00:38:17.196Z,68.80
2019-06-26T00:39:21.834Z,68.80
2019-06-26T00:40:25.903Z,68.90
2019-06-26T00:41:30.584Z,68.90
2019-06-26T00:42:34.726Z,69.20
2019-06-26T00:43:42.609Z,69.00
2019-06-26T00:44:45.120Z,69.10
2019-06-26T00:45:49.777Z,69.00
2019-06-26T00:46:53.916Z,69.20
2019-06-26T00:47:58.598Z,69.30
2019-06-26T00:49:02.726Z,69.40
2019-06-26T00:50:09.007Z,69.40
2019-06-26T00:51:13.102Z,69.60
2019-06-26T00:52:17.801Z,69.50
2019-06-26T00:53:21.854Z,69.50
2019-06-26T00:54:26.515Z,69.70
2019-06-26T00:55:30.669Z,69.70
2019-06-26T00:56:35.895Z,69.90
2019-06-26T00:57:39.955Z,70.60
2019-06-26T00:58:44.732Z,69.90
2019-06-26T00:59:48.837Z,70.20
2019-06-26T01:00:53.658Z,70.10
2019-06-26T01:01:57.779Z,70.00
2019-06-26T01:03:02.433Z,70.10
2019-06-26T01:04:11.093Z,70.10
2019-06-26T01:05:15.805Z,70.30
2019-06-26T01:06:37.657Z,70.20
2019-06-26T01:07:41.773Z,70.20
2019-06-26T01:08:46.413Z,70.20
2019-06-26T01:09:50.471Z,70.30
2019-06-26T01:10:55.155Z,70.30
2019-06-26T01:11:59.214Z,70.50
2019-06-26T01:13:03.939Z,70.50
2019-06-26T01:14:08.075Z,70.60
2019-06-26T01:15:13.133Z,70.50
2019-06-26T01:16:17.915Z,70.50
2019-06-26T01:17:22.543Z,70.50
2019-06-26T01:18:26.599Z,70.50
2019-06-26T01:19:31.319Z,70.50
2019-06-26T01:20:35.484Z,70.70
2019-06-26T01:21:40.175Z,70.70
2019-06-26T01:22:44.235Z,70.70
2019-06-26T01:23:48.891Z,70.70
2019-06-26T01:24:53.027Z,70.70
2019-06-26T01:25:57.657Z,70.90
2019-06-26T01:27:01.745Z,70.80
2019-06-26T01:28:06.495Z,71.00
2019-06-26T01:29:10.635Z,71.00
2019-06-26T01:30:15.593Z,71.20
2019-06-26T01:31:19.789Z,71.10
2019-06-26T01:32:24.431Z,71.00
2019-06-26T01:33:28.535Z,71.10
2019-06-26T01:34:33.169Z,71.30
2019-06-26T01:35:37.231Z,71.30
2019-06-26T01:36:41.950Z,71.30
2019-06-26T01:37:46.021Z,71.30
2019-06-26T01:38:50.672Z,71.40
2019-06-26T01:39:54.722Z,71.50
2019-06-26T01:40:59.366Z,71.50
2019-06-26T01:42:03.529Z,71.60
2019-06-26T01:43:08.177Z,71.50
2019-06-26T01:44:15.204Z,71.60
2019-06-26T01:45:18.672Z,71.50
2019-06-26T01:46:22.936Z,71.70
2019-06-26T01:47:27.764Z,71.80
2019-06-26T01:48:31.819Z,71.70
2019-06-26T01:49:36.487Z,71.80
2019-06-26T01:50:40.593Z,71.90
2019-06-26T01:51:45.241Z,71.90
2019-06-26T01:52:49.307Z,71.90
2019-06-26T01:53:53.947Z,72.00
2019-06-26T01:54:58.059Z,72.00
2019-06-26T01:56:02.715Z,72.10
2019-06-26T01:57:09.543Z,72.00
2019-06-26T01:58:14.177Z,72.10
2019-06-26T01:59:18.286Z,72.10
2019-06-26T02:00:23.370Z,72.30
2019-06-26T02:01:29.223Z,72.20
2019-06-26T02:02:33.865Z,72.20
2019-06-26T02:03:37.941Z,72.40
2019-06-26T02:04:42.585Z,72.50
2019-06-26T02:05:46.659Z,72.30
2019-06-26T02:06:51.304Z,73.20
2019-06-26T02:07:55.378Z,72.40
2019-06-26T02:09:00.024Z,72.50
2019-06-26T02:10:05.834Z,72.50
2019-06-26T02:11:10.480Z,72.80
2019-06-26T02:12:14.607Z,72.40
2019-06-26T02:13:19.235Z,72.50
2019-06-26T02:14:31.157Z,72.50
2019-06-26T02:15:32.581Z,72.50
2019-06-26T02:16:36.700Z,72.70
2019-06-26T02:17:41.332Z,72.50
2019-06-26T02:18:49.814Z,72.50
2019-06-26T02:19:54.431Z,72.60
2019-06-26T02:20:58.688Z,72.60
2019-06-26T02:22:03.287Z,72.80
2019-06-26T02:23:07.342Z,72.80
2019-06-26T02:24:12.062Z,73.50
2019-06-26T02:25:16.411Z,72.80
2019-06-26T02:26:21.137Z,72.80
2019-06-26T02:27:25.236Z,72.80
2019-06-26T02:28:30.033Z,72.90
2019-06-26T02:29:34.213Z,72.90
2019-06-26T02:30:38.850Z,72.90
2019-06-26T02:31:42.928Z,72.90
2019-06-26T02:32:47.572Z,73.00
2019-06-26T02:33:51.678Z,73.10
2019-06-26T02:34:56.366Z,73.20
2019-06-26T02:36:00.478Z,73.10
2019-06-26T02:37:05.302Z,73.10
2019-06-26T02:38:09.376Z,73.20
2019-06-26T02:39:14.010Z,73.20
2019-06-26T02:40:19.502Z,73.30
2019-06-26T02:41:24.206Z,73.30
2019-06-26T02:42:28.287Z,73.40
2019-06-26T02:43:32.981Z,73.50
2019-06-26T02:44:52.243Z,73.50
2019-06-26T02:45:43.344Z,73.40
2019-06-26T02:46:47.483Z,73.50
2019-06-26T02:47:52.199Z,73.50
2019-06-26T02:48:56.275Z,73.60
2019-06-26T02:50:00.930Z,73.60
2019-06-26T02:51:05.041Z,73.60
2019-06-26T02:52:09.757Z,73.60
2019-06-26T02:53:13.809Z,73.80
2019-06-26T02:54:18.525Z,73.80
2019-06-26T02:55:22.583Z,73.70
2019-06-26T02:56:27.249Z,73.70
2019-06-26T02:57:31.411Z,73.80
2019-06-26T02:58:36.160Z,73.80
2019-06-26T02:59:40.265Z,73.90
2019-06-26T03:00:44.984Z,73.80
2019-06-26T03:01:49.035Z,73.80
2019-06-26T03:02:53.672Z,73.90
2019-06-26T03:03:57.766Z,74.00
2019-06-26T03:05:02.620Z,74.00
2019-06-26T03:06:06.833Z,74.00
2019-06-26T03:07:11.505Z,74.00
2019-06-26T03:08:17.088Z,74.00
2019-06-26T03:09:21.729Z,74.10
2019-06-26T03:10:25.795Z,73.90
2019-06-26T03:11:30.447Z,74.00
2019-06-26T03:12:34.728Z,74.00
2019-06-26T03:13:39.432Z,74.10
2019-06-26T03:14:43.554Z,74.10
2019-06-26T03:15:50.514Z,74.20
2019-06-26T03:16:53.972Z,74.20
2019-06-26T03:17:58.623Z,74.10
2019-06-26T03:19:02.692Z,74.20
2019-06-26T03:20:07.816Z,74.20
2019-06-26T03:21:11.880Z,74.30
2019-06-26T03:22:16.596Z,74.40
2019-06-26T03:23:20.670Z,74.30
2019-06-26T03:24:25.337Z,74.30
2019-06-26T03:25:29.508Z,74.30
2019-06-26T03:26:34.112Z,74.30
2019-06-26T03:27:38.188Z,74.30
2019-06-26T03:28:42.826Z,74.40
2019-06-26T03:29:47.057Z,74.30
2019-06-26T03:30:51.683Z,74.30
2019-06-26T03:31:55.745Z,74.30
2019-06-26T03:33:00.468Z,74.20
2019-06-26T03:34:04.653Z,74.20
2019-06-26T03:35:09.394Z,74.20
2019-06-26T03:36:13.449Z,74.10
2019-06-26T03:37:18.088Z,74.00
2019-06-26T03:38:22.152Z,74.10
2019-06-26T03:39:26.805Z,73.90
2019-06-26T03:40:30.899Z,73.90
2019-06-26T03:41:35.537Z,73.80
2019-06-26T03:42:39.628Z,73.80
2019-06-26T03:43:44.276Z,73.70
2019-06-26T03:44:48.464Z,73.60
2019-06-26T03:45:53.119Z,73.60
2019-06-26T03:46:57.178Z,73.50
2019-06-26T03:48:01.857Z,73.50
2019-06-26T03:49:05.929Z,73.50
2019-06-26T03:50:10.646Z,73.50
2019-06-26T03:51:14.702Z,73.40
2019-06-26T03:52:19.409Z,73.30
2019-06-26T03:53:23.490Z,73.30
2019-06-26T03:54:28.133Z,73.30
2019-06-26T03:55:32.294Z,73.20
2019-06-26T03:56:37.010Z,73.40
2019-06-26T03:57:41.095Z,73.20
2019-06-26T03:58:45.685Z,73.20
2019-06-26T03:59:49.916Z,73.20
2019-06-26T04:00:54.593Z,73.20
2019-06-26T04:01:58.668Z,73.20
2019-06-26T04:03:03.340Z,73.20
2019-06-26T04:04:07.470Z,73.20
2019-06-26T04:05:12.442Z,73.20
2019-06-26T04:06:16.508Z,73.20
2019-06-26T04:07:21.245Z,73.30
2019-06-26T04:08:25.469Z,73.20
2019-06-26T04:09:30.249Z,73.30
2019-06-26T04:10:35.604Z,73.30
2019-06-26T04:11:40.244Z,73.20
2019-06-26T04:12:44.349Z,73.40
2019-06-26T04:13:49.007Z,73.40
2019-06-26T04:14:53.077Z,73.40
2019-06-26T04:15:57.850Z,73.40
2019-06-26T04:17:02.093Z,73.40
2019-06-26T04:18:06.849Z,73.50
2019-06-26T04:19:10.958Z,73.50
2019-06-26T04:20:15.845Z,73.60
2019-06-26T04:21:19.900Z,73.60
2019-06-26T04:22:24.596Z,73.60
2019-06-26T04:23:28.660Z,73.70
2019-06-26T04:24:33.316Z,73.60
2019-06-26T04:25:38.416Z,73.60
2019-06-26T04:26:43.243Z,73.60
2019-06-26T04:27:47.292Z,73.60
2019-06-26T04:28:51.954Z,73.50
2019-06-26T04:29:56.050Z,73.60
2019-06-26T04:31:00.724Z,73.40
2019-06-26T04:32:04.864Z,73.40
2019-06-26T04:33:09.517Z,73.20
2019-06-26T04:34:13.592Z,73.30
2019-06-26T04:35:18.384Z,73.00
2019-06-26T04:36:22.508Z,72.90
2019-06-26T04:37:27.166Z,72.80
2019-06-26T04:38:31.226Z,72.60
2019-06-26T04:39:35.852Z,72.50
2019-06-26T04:40:39.946Z,72.40
2019-06-26T04:41:44.622Z,72.20
2019-06-26T04:42:48.695Z,72.10
2019-06-26T04:43:53.328Z,71.90
2019-06-26T04:44:57.470Z,71.80
2019-06-26T04:46:02.153Z,71.70
2019-06-26T04:47:06.232Z,71.70
2019-06-26T04:48:10.948Z,71.60
2019-06-26T04:49:15.020Z,71.60
2019-06-26T04:50:20.566Z,71.60
2019-06-26T04:51:24.635Z,71.80
2019-06-26T04:52:30.844Z,71.80
2019-06-26T04:53:35.000Z,71.80
2019-06-26T04:54:39.646Z,71.80
2019-06-26T04:55:43.916Z,71.90
2019-06-26T04:56:48.544Z,71.80
2019-06-26T04:57:52.617Z,71.80
2019-06-26T04:58:57.344Z,71.90
2019-06-26T05:00:01.433Z,71.80
2019-06-26T05:01:06.234Z,71.80
2019-06-26T05:02:10.440Z,71.80
2019-06-26T05:03:15.162Z,71.80
2019-06-26T05:04:19.233Z,71.80
2019-06-26T05:05:38.619Z,71.80
2019-06-26T05:06:29.614Z,71.90
2019-06-26T05:07:34.253Z,71.80
2019-06-26T05:08:38.322Z,71.80
2019-06-26T05:09:42.990Z,71.80
2019-06-26T05:10:47.064Z,71.80
2019-06-26T05:11:51.736Z,71.30
2019-06-26T05:12:55.828Z,71.80
2019-06-26T05:14:00.478Z,71.90
2019-06-26T05:15:06.784Z,71.80
2019-06-26T05:16:15.729Z,71.80
2019-06-26T05:17:17.136Z,71.00
2019-06-26T05:18:21.891Z,72.60
2019-06-26T05:19:26.108Z,71.60
2019-06-26T05:20:30.749Z,71.60
2019-06-26T05:21:34.828Z,71.50
2019-06-26T05:22:39.467Z,71.50
2019-06-26T05:23:43.579Z,71.40
2019-06-26T05:24:48.209Z,71.30
2019-06-26T05:25:52.295Z,71.30
2019-06-26T05:26:57.880Z,71.20
2019-06-26T05:28:08.291Z,71.10
2019-06-26T05:29:11.619Z,71.10
2019-06-26T05:30:17.120Z,71.10
2019-06-26T05:31:23.611Z,71.00
2019-06-26T05:32:27.836Z,71.00
2019-06-26T05:33:32.658Z,70.90
2019-06-26T05:34:36.786Z,70.80
2019-06-26T05:35:41.511Z,70.60
2019-06-26T05:36:45.608Z,70.70
2019-06-26T05:37:50.264Z,71.40
2019-06-26T05:38:54.430Z,71.00
2019-06-26T05:39:59.232Z,71.00
2019-06-26T05:41:03.391Z,70.30
2019-06-26T05:42:08.384Z,70.40
2019-06-26T05:43:12.668Z,70.40
2019-06-26T05:44:17.491Z,70.30
2019-06-26T05:45:22.295Z,70.30
2019-06-26T05:46:31.374Z,70.40
2019-06-26T05:47:32.760Z,71.10
2019-06-26T05:48:37.410Z,70.40
2019-06-26T05:49:44.242Z,70.40
2019-06-26T05:50:48.907Z,70.30
2019-06-26T05:51:53.140Z,70.30
2019-06-26T05:52:57.876Z,70.20
2019-06-26T05:54:02.017Z,70.30
2019-06-26T05:55:07.341Z,70.10
2019-06-26T05:56:11.550Z,70.10
2019-06-26T05:57:16.188Z,70.00
2019-06-26T05:58:20.400Z,70.00
2019-06-26T05:59:25.072Z,69.90
2019-06-26T06:00:29.267Z,69.40
2019-06-26T06:01:33.982Z,69.90
2019-06-26T06:02:38.218Z,69.80
2019-06-26T06:03:42.910Z,69.70
2019-06-26T06:04:47.093Z,69.70
2019-06-26T06:05:52.966Z,69.80
2019-06-26T06:06:57.221Z,69.70
2019-06-26T06:08:02.057Z,69.70
2019-06-26T06:09:08.227Z,69.70
2019-06-26T06:10:13.434Z,69.60
2019-06-26T06:11:18.502Z,69.60
2019-06-26T06:12:26.520Z,69.50
2019-06-26T06:13:31.286Z,69.40
2019-06-26T06:14:36.228Z,69.40
2019-06-26T06:15:40.660Z,69.40
2019-06-26T06:16:48.090Z,69.30
2019-06-26T06:17:53.974Z,69.20
2019-06-26T06:18:58.422Z,69.20
2019-06-26T06:20:06.303Z,69.10
2019-06-26T06:21:10.977Z,69.00
2019-06-26T06:22:15.138Z,69.10
2019-06-26T06:23:19.880Z,69.20
2019-06-26T06:24:26.099Z,69.00
2019-06-26T06:25:30.882Z,68.90
2019-06-26T06:26:35.048Z,68.80
2019-06-26T06:27:47.825Z,68.70
2019-06-26T06:28:51.121Z,68.70
2019-06-26T06:29:55.876Z,68.60
2019-06-26T06:31:01.524Z,68.60
2019-06-26T06:32:08.970Z,68.60
2019-06-26T06:33:13.123Z,69.40
2019-06-26T06:34:19.409Z,68.50
2019-06-26T06:35:28.844Z,68.40
2019-06-26T06:36:33.589Z,68.40
2019-06-26T06:37:37.831Z,68.40
2019-06-26T06:38:42.269Z,68.40
2019-06-26T06:39:46.395Z,68.30
2019-06-26T06:40:51.148Z,68.10
2019-06-26T06:41:55.300Z,68.10
2019-06-26T06:43:00.236Z,68.00
2019-06-26T06:44:04.497Z,67.90
2019-06-26T06:45:14.438Z,67.90
2019-06-26T06:46:18.741Z,67.80
2019-06-26T06:47:28.768Z,67.70
2019-06-26T06:48:33.073Z,67.70
2019-06-26T06:49:37.943Z,67.70
2019-06-26T06:50:43.530Z,67.60
2019-06-26T06:51:48.207Z,67.60
2019-06-26T06:52:52.368Z,67.60
2019-06-26T06:54:00.525Z,67.50
2019-06-26T06:55:10.699Z,67.30
2019-06-26T06:56:14.497Z,67.10
2019-06-26T06:57:18.757Z,67.00
2019-06-26T06:58:24.974Z,67.10
2019-06-26T06:59:29.133Z,66.80
2019-06-26T07:00:38.687Z,66.90
2019-06-26T07:01:42.845Z,67.00
2019-06-26T07:02:47.638Z,66.90
2019-06-26T07:03:51.738Z,66.80
2019-06-26T07:04:56.439Z,66.70
2019-06-26T07:06:00.566Z,66.70
2019-06-26T07:07:05.394Z,66.50
2019-06-26T07:08:09.727Z,66.40
2019-06-26T07:09:14.402Z,66.30
2019-06-26T07:10:19.707Z,66.30
2019-06-26T07:11:24.565Z,66.20
2019-06-26T07:12:28.804Z,66.00
2019-06-26T07:13:33.653Z,66.00
2019-06-26T07:14:37.741Z,65.90
2019-06-26T07:15:42.500Z,65.80
2019-06-26T07:16:46.548Z,65.80
2019-06-26T07:17:51.321Z,65.70
2019-06-26T07:18:55.455Z,65.60
2019-06-26T07:20:00.118Z,65.60
2019-06-26T07:21:05.503Z,65.40
2019-06-26T07:22:10.234Z,66.20
2019-06-26T07:23:14.375Z,65.40
2019-06-26T07:24:19.071Z,65.20
2019-06-26T07:25:24.153Z,65.30
2019-06-26T07:26:28.997Z,65.50
2019-06-26T07:27:33.109Z,65.40
2019-06-26T07:28:37.889Z,65.30
2019-06-26T07:29:42.062Z,65.10
2019-06-26T07:30:49.240Z,65.00
2019-06-26T07:31:52.622Z,64.70
2019-06-26T07:32:57.367Z,64.80
2019-06-26T07:34:01.853Z,64.50
2019-06-26T07:35:07.999Z,64.40
2019-06-26T07:36:12.143Z,64.30
2019-06-26T07:37:16.569Z,64.20
2019-06-26T07:38:20.773Z,64.20
2019-06-26T07:39:25.440Z,64.10
2019-06-26T07:40:32.203Z,64.00
2019-06-26T07:41:36.972Z,63.90
2019-06-26T07:42:41.558Z,63.90
2019-06-26T07:43:46.261Z,63.70
2019-06-26T07:44:50.697Z,63.60
2019-06-26T07:45:55.960Z,62.60
2019-06-26T07:47:00.235Z,63.40
2019-06-26T07:48:05.224Z,63.00
2019-06-26T07:49:09.417Z,63.00
2019-06-26T07:50:14.864Z,62.90
2019-06-26T07:51:19.123Z,62.90
2019-06-26T07:52:23.841Z,62.70
2019-06-26T07:53:30.726Z,62.70
2019-06-26T07:54:35.483Z,62.50
2019-06-26T07:55:42.418Z,62.50
2019-06-26T07:56:47.163Z,62.40
2019-06-26T07:57:53.630Z,62.30
2019-06-26T07:58:58.366Z,62.20
2019-06-26T08:00:02.550Z,62.00
2019-06-26T08:01:07.225Z,62.00
2019-06-26T08:02:12.945Z,61.90
2019-06-26T08:03:19.149Z,62.00
2019-06-26T08:04:24.878Z,62.00
2019-06-26T08:05:29.593Z,61.90
2019-06-26T08:06:33.759Z,61.70
2019-06-26T08:07:38.605Z,61.70
2019-06-26T08:08:42.730Z,61.60
2019-06-26T08:09:47.437Z,61.50
2019-06-26T08:10:51.660Z,61.40
2019-06-26T08:11:56.419Z,61.30
2019-06-26T08:13:00.542Z,61.10
2019-06-26T08:14:06.104Z,61.10
2019-06-26T08:15:10.406Z,61.20
2019-06-26T08:16:15.190Z,61.20
2019-06-26T08:17:19.358Z,61.00
2019-06-26T08:18:24.254Z,60.90
2019-06-26T08:19:28.382Z,60.80
2019-06-26T08:20:49.844Z,60.60
2019-06-26T08:21:40.285Z,60.50
2019-06-26T08:22:45.091Z,60.30
2019-06-26T08:23:49.254Z,60.30
2019-06-26T08:24:53.959Z,60.20
2019-06-26T08:25:58.113Z,60.10
2019-06-26T08:27:02.702Z,60.10
2019-06-26T08:28:41.883Z,60.00
2019-06-26T08:29:56.944Z,59.90
2019-06-26T08:31:07.585Z,60.00
2019-06-26T08:32:14.127Z,60.00
2019-06-26T08:33:18.069Z,59.90
2019-06-26T08:34:22.286Z,59.90
2019-06-26T08:35:28.485Z,59.90
2019-06-26T08:36:32.695Z,59.80
2019-06-26T08:37:39.250Z,59.60
2019-06-26T08:38:45.667Z,59.50
2019-06-26T08:39:52.780Z,59.30
2019-06-26T08:40:59.146Z,59.40
2019-06-26T08:42:12.399Z,59.30
2019-06-26T08:43:16.670Z,59.10
2019-06-26T08:44:26.508Z,58.80
2019-06-26T08:45:32.112Z,58.60
2019-06-26T08:46:36.855Z,58.50
2019-06-26T08:47:41.128Z,58.50
2019-06-26T08:48:45.922Z,58.30
2019-06-26T08:49:50.191Z,59.00
2019-06-26T08:50:55.005Z,58.40
2019-06-26T08:51:59.424Z,58.20
2019-06-26T08:53:04.283Z,58.20
2019-06-26T08:54:10.825Z,58.10
2019-06-26T08:55:18.024Z,57.90
2019-06-26T08:56:22.283Z,57.70
2019-06-26T08:57:26.805Z,57.50
2019-06-26T08:58:36.487Z,57.40
2019-06-26T08:59:41.249Z,57.30
2019-06-26T09:00:45.864Z,57.00
2019-06-26T09:01:52.025Z,56.90
2019-06-26T09:02:56.216Z,56.70
2019-06-26T09:04:03.927Z,56.50
2019-06-26T09:05:08.360Z,56.20
2019-06-26T09:06:13.198Z,56.10
2019-06-26T09:07:24.823Z,56.00
2019-06-26T09:08:32.717Z,55.90
2019-06-26T09:09:37.016Z,56.00
2019-06-26T09:10:44.816Z,55.90
2019-06-26T09:11:47.445Z,55.90
2019-06-26T09:12:53.282Z,56.10
2019-06-26T09:13:57.461Z,55.70
2019-06-26T09:15:03.617Z,55.50
2019-06-26T09:16:07.990Z,55.40
2019-06-26T09:17:17.103Z,55.40
2019-06-26T09:18:35.058Z,55.30
2019-06-26T09:19:30.481Z,55.30
2019-06-26T09:20:40.172Z,55.20
2019-06-26T09:21:44.983Z,55.10
2019-06-26T09:22:49.039Z,54.90
2019-06-26T09:23:56.233Z,54.80
2019-06-26T09:25:00.548Z,54.60
2019-06-26T09:26:06.866Z,54.50
2019-06-26T09:27:14.667Z,54.30
2019-06-26T09:28:17.637Z,54.20
2019-06-26T09:29:23.950Z,54.00
2019-06-26T09:30:32.649Z,53.40
2019-06-26T09:31:36.809Z,53.00
2019-06-26T09:32:41.942Z,52.90
2019-06-26T09:33:47.635Z,52.80
2019-06-26T09:34:52.457Z,52.80
2019-06-26T09:35:56.679Z,52.70
2019-06-26T09:37:01.438Z,52.60
2019-06-26T09:38:05.770Z,52.50
2019-06-26T09:39:12.151Z,52.30
2019-06-26T09:40:18.077Z,52.10
2019-06-26T09:41:27.875Z,52.00
2019-06-26T09:42:34.242Z,51.80
2019-06-26T09:43:39.088Z,51.20
2019-06-26T09:44:43.310Z,51.30
2019-06-26T09:45:50.728Z,51.10
2019-06-26T09:46:54.982Z,51.10
2019-06-26T09:47:59.753Z,51.00
2019-06-26T09:49:04.432Z,50.90
2019-06-26T09:50:09.454Z,51.00
2019-06-26T09:51:13.646Z,50.80
2019-06-26T09:52:18.457Z,50.90
2019-06-26T09:53:22.710Z,50.70
2019-06-26T09:54:31.073Z,50.60
2019-06-26T09:55:34.330Z,50.40
2019-06-26T09:56:39.057Z,50.40
2019-06-26T09:57:43.285Z,50.30
2019-06-26T09:58:56.300Z,50.20
2019-06-26T10:00:00.553Z,50.10
2019-06-26T10:01:06.375Z,50.00
2019-06-26T10:02:10.523Z,50.00
2019-06-26T10:03:17.622Z,50.00
2019-06-26T10:04:21.653Z,50.10
2019-06-26T10:05:33.847Z,50.10
2019-06-26T10:06:40.889Z,50.10
2019-06-26T10:07:45.713Z,50.20
2019-06-26T10:08:53.776Z,50.10
2019-06-26T10:10:28.740Z,50.10
2019-06-26T10:11:35.327Z,50.80
2019-06-26T10:12:42.367Z,50.20
2019-06-26T10:13:52.625Z,50.20
2019-06-26T10:14:57.537Z,50.30
2019-06-26T10:16:03.095Z,50.10
2019-06-26T10:17:07.892Z,50.10
2019-06-26T10:18:13.025Z,50.20
2019-06-26T10:19:19.402Z,50.10
2019-06-26T10:20:24.825Z,49.60
2019-06-26T10:21:31.677Z,49.40
2019-06-26T10:22:35.984Z,49.30
2019-06-26T10:23:47.964Z,49.20
2019-06-26T10:24:56.703Z,48.80
2019-06-26T10:26:08.696Z,48.90
2019-06-26T10:27:12.981Z,49.00
2019-06-26T10:28:17.860Z,49.80
2019-06-26T10:29:25.101Z,49.20
2019-06-26T10:30:32.663Z,49.20
2019-06-26T10:31:39.864Z,49.20
2019-06-26T10:32:48.055Z,49.30
2019-06-26T10:33:56.170Z,49.30
2019-06-26T10:35:00.957Z,49.20
2019-06-26T10:36:06.921Z,49.10
2019-06-26T10:37:14.650Z,49.10
2019-06-26T10:38:20.450Z,49.20
2019-06-26T10:39:28.839Z,49.20
2019-06-26T10:40:32.948Z,49.40
2019-06-26T10:41:38.889Z,49.50
2019-06-26T10:42:44.645Z,49.60
2019-06-26T10:43:53.370Z,49.70
2019-06-26T10:45:02.829Z,49.60
2019-06-26T10:46:08.009Z,49.50
2019-06-26T10:47:12.332Z,49.10
2019-06-26T10:48:17.132Z,49.00
2019-06-26T10:49:27.390Z,48.90
2019-06-26T10:50:30.988Z,48.80
2019-06-26T10:51:35.095Z,48.70
2019-06-26T10:52:42.709Z,48.60
2019-06-26T10:53:47.082Z,48.60
2019-06-26T10:54:51.795Z,48.40
2019-06-26T10:55:56.037Z,48.40
2019-06-26T10:57:00.709Z,48.20
2019-06-26T10:58:05.016Z,48.10
2019-06-26T10:59:09.630Z,48.10
2019-06-26T11:00:15.587Z,47.90
2019-06-26T11:01:20.271Z,48.00
2019-06-26T11:02:25.984Z,47.80
2019-06-26T11:03:30.651Z,47.70
2019-06-26T11:04:34.752Z,47.50
2019-06-26T11:05:41.968Z,47.40
2019-06-26T11:06:45.312Z,47.20
2019-06-26T11:07:51.421Z,47.50
2019-06-26T11:08:55.692Z,46.50
2019-06-26T11:10:00.505Z,46.40
2019-06-26T11:11:04.750Z,46.40
2019-06-26T11:12:12.496Z,46.20
2019-06-26T11:13:17.951Z,46.10
2019-06-26T11:14:22.633Z,46.10
2019-06-26T11:15:26.956Z,46.10
2019-06-26T11:16:35.353Z,46.10
2019-06-26T11:17:42.626Z,46.10
2019-06-26T11:18:47.405Z,46.20
2019-06-26T11:19:55.687Z,45.90
2019-06-26T11:21:00.628Z,45.70
2019-06-26T11:22:04.992Z,45.80
2019-06-26T11:23:09.751Z,45.80
2019-06-26T11:24:15.451Z,45.80
2019-06-26T11:25:21.812Z,45.80
2019-06-26T11:26:30.322Z,45.90
2019-06-26T11:27:37.054Z,45.90
2019-06-26T11:28:41.215Z,46.00
2019-06-26T11:29:48.872Z,46.00
2019-06-26T11:30:55.969Z,45.60
2019-06-26T11:32:03.489Z,45.50
2019-06-26T11:33:07.701Z,45.50
2019-06-26T11:34:12.409Z,45.50
2019-06-26T11:35:18.197Z,45.50
2019-06-26T11:36:22.919Z,45.40
2019-06-26T11:37:27.245Z,45.30
2019-06-26T11:38:32.064Z,45.20
2019-06-26T11:39:42.287Z,45.00
2019-06-26T11:42:32.681Z,44.80
2019-06-26T11:43:37.299Z,44.70
2019-06-26T11:44:41.507Z,44.60
2019-06-26T11:45:46.339Z,44.50
2019-06-26T11:46:50.635Z,44.40
2019-06-26T11:47:55.341Z,44.40
2019-06-26T11:49:00.195Z,44.30
2019-06-26T11:50:07.965Z,44.30
2019-06-26T11:51:12.122Z,44.50
2019-06-26T11:52:20.154Z,44.50
2019-06-26T11:53:24.264Z,45.10
2019-06-26T11:54:28.981Z,44.40
2019-06-26T11:55:33.297Z,44.50
2019-06-26T11:56:40.921Z,44.40
2019-06-26T11:57:45.175Z,44.10
2019-06-26T11:58:50.029Z,43.90
2019-06-26T11:59:54.267Z,43.90
2019-06-26T12:00:59.057Z,43.80
2019-06-26T12:02:03.284Z,43.70
2019-06-26T12:03:13.421Z,43.60
2019-06-26T12:04:17.776Z,43.60
2019-06-26T12:05:22.702Z,43.50
2019-06-26T12:06:27.481Z,43.50
2019-06-26T12:07:37.720Z,43.50
2019-06-26T12:08:43.089Z,43.50
2019-06-26T12:09:47.867Z,43.60
2019-06-26T12:10:56.568Z,43.70
2019-06-26T12:12:01.561Z,43.70
2019-06-26T12:13:05.862Z,43.60
2019-06-26T12:14:10.655Z,43.60
2019-06-26T12:15:16.808Z,43.60
2019-06-26T12:16:24.276Z,43.70
2019-06-26T12:17:28.416Z,44.50
2019-06-26T12:18:35.856Z,43.80
2019-06-26T12:19:41.099Z,43.20
2019-06-26T12:20:46.785Z,42.80
2019-06-26T12:21:50.944Z,42.80
2019-06-26T12:23:02.991Z,42.40
2019-06-26T12:25:33.662Z,42.30
2019-06-26T12:26:40.806Z,42.40
2019-06-26T12:27:45.646Z,42.50
2019-06-26T12:29:24.464Z,42.50
2019-06-26T12:30:32.013Z,42.40
2019-06-26T12:31:36.172Z,42.30
2019-06-26T12:33:01.165Z,42.40
2019-06-26T12:33:53.873Z,42.40
2019-06-26T12:34:58.645Z,42.40
2019-06-26T12:36:02.955Z,42.50
2019-06-26T12:37:07.828Z,42.60
2019-06-26T12:38:12.032Z,42.70
2019-06-26T12:39:16.741Z,42.70
2019-06-26T12:40:21.266Z,42.70
2019-06-26T12:41:34.484Z,42.90
2019-06-26T12:42:38.794Z,43.00
2019-06-26T12:43:43.725Z,43.10
2019-06-26T12:44:54.480Z,43.30
2019-06-26T12:45:54.480Z,43.30
2019-06-26T12:46:58.736Z,43.30
2019-06-26T12:48:03.594Z,43.30
2019-06-26T12:49:10.872Z,43.30
2019-06-26T12:50:34.170Z,43.40
2019-06-26T12:51:25.085Z,43.30
2019-06-26T12:52:29.945Z,43.20
2019-06-26T12:53:34.265Z,43.20
2019-06-26T12:54:38.996Z,43.30
2019-06-26T12:55:43.205Z,43.30
2019-06-26T12:56:48.011Z,43.30
2019-06-26T12:57:52.302Z,43.20
2019-06-26T12:59:00.282Z,43.40
2019-06-26T13:00:07.413Z,43.40
2019-06-26T13:01:12.214Z,43.40
2019-06-26T13:02:16.396Z,43.30
2019-06-26T13:03:21.197Z,43.30
2019-06-26T13:04:25.380Z,43.50
2019-06-26T13:05:30.238Z,43.40
2019-06-26T13:06:35.983Z,43.80
2019-06-26T13:07:40.556Z,42.90
2019-06-26T13:08:44.660Z,42.80
2019-06-26T13:09:53.819Z,42.50
2019-06-26T13:10:57.877Z,42.40
2019-06-26T13:12:02.695Z,42.40
2019-06-26T13:13:07.002Z,42.40
2019-06-26T13:14:11.785Z,42.30
2019-06-26T13:15:16.100Z,42.10
2019-06-26T13:16:21.004Z,42.10
2019-06-26T13:17:25.246Z,41.90
2019-06-26T13:18:31.052Z,41.90
2019-06-26T13:19:35.254Z,42.00
2019-06-26T13:20:52.137Z,41.90
2019-06-26T13:21:50.890Z,42.00
2019-06-26T13:22:54.956Z,41.80
2019-06-26T13:24:00.615Z,41.80
2019-06-26T13:25:09.158Z,41.80
2019-06-26T13:26:14.832Z,41.90
2019-06-26T13:27:29.068Z,41.90
2019-06-26T13:28:28.474Z,42.00
2019-06-26T13:29:35.914Z,42.10
2019-06-26T13:30:40.170Z,42.00
2019-06-26T13:31:44.864Z,41.70
2019-06-26T13:32:50.632Z,41.70
2019-06-26T13:33:57.468Z,41.70
2019-06-26T13:35:05.620Z,41.80
2019-06-26T13:36:11.515Z,41.90
2019-06-26T13:37:15.386Z,42.00
2019-06-26T13:38:21.440Z,42.00
2019-06-26T13:39:25.587Z,40.70
2019-06-26T13:40:30.355Z,40.60
2019-06-26T13:41:39.989Z,39.70
2019-06-26T13:42:45.104Z,39.90
2019-06-26T13:43:50.798Z,40.00
2019-06-26T13:44:55.516Z,40.20
2019-06-26T13:45:59.639Z,40.30
2019-06-26T13:47:04.412Z,40.40
2019-06-26T13:48:08.626Z,40.40
2019-06-26T13:49:16.416Z,40.10
2019-06-26T13:50:19.646Z,39.90
2019-06-26T13:51:24.373Z,39.80
2019-06-26T13:52:28.489Z,39.80
2019-06-26T13:53:33.258Z,39.70
2019-06-26T13:54:37.473Z,38.60
2019-06-26T13:55:42.980Z,38.00
2019-06-26T13:56:47.150Z,38.20
2019-06-26T13:57:51.809Z,38.20
2019-06-26T13:58:59.038Z,37.40
2019-06-26T14:00:05.534Z,37.40
2019-06-26T14:01:09.710Z,37.50
2019-06-26T14:02:14.524Z,37.60
2019-06-26T14:03:18.599Z,37.50
2019-06-26T14:04:23.341Z,37.10